EEST,Max TemperatureF,Mean TemperatureF,Min TemperatureF,Max Dew PointF,MeanDew PointF,Min DewpointF,Max Humidity, Mean Humidity, Min Humidity, Max Sea Level PressureIn, Mean Sea Level PressureIn, Min Sea Level PressureIn, Max VisibilityMiles, Mean VisibilityMiles, Min VisibilityMiles, Max Wind SpeedMPH, Mean Wind SpeedMPH, Max Gust SpeedMPH,PrecipitationIn, CloudCover, Events, WindDirDegrees
2013-9-1,83,73,63,55,51,46,68,46,26,30.08,30.06,30.04,6,6,6,16,9,,0.00,2,,33
2013-9-2,85,74,64,57,54,48,68,48,21,30.06,30.05,30.04,6,6,6,15,8,,0.00,2,,34
2013-9-3,80,72,64,61,56,52,73,54,37,30.06,30.02,29.95,6,6,6,12,5,,0.00,2,,252
2013-9-4,79,72,66,57,49,41,73,43,20,30.13,30.07,29.98,12,6,6,23,13,25,0.00,3,,355
2013-9-5,77,70,62,54,48,37,64,45,25,30.12,30.08,30.01,6,6,6,10,5,,0.00,3,,68
2013-9-6,79,72,65,55,50,46,60,45,24,30.01,29.96,29.92,6,6,6,10,7,18,0.00,2,,111
2013-9-7,84,74,64,52,47,41,52,38,14,30.08,30.03,29.98,12,7,6,13,7,,0.00,1,,55
2013-9-8,81,71,61,55,51,45,63,47,26,30.18,30.12,30.06,6,6,6,18,8,18,0.00,3,,27
2013-9-9,81,72,63,55,50,41,73,47,20,30.19,30.16,30.12,6,6,6,12,7,22,0.00,2,,47
2013-9-10,78,70,62,57,51,41,68,50,22,30.13,30.08,30.04,12,7,6,8,6,,0.00,4,,107
2013-9-11,84,74,63,59,53,46,64,45,24,30.06,30.01,29.95,6,6,6,8,4,,0.00,,,131
2013-9-12,84,76,69,70,61,54,94,61,30,29.98,29.94,29.89,12,8,6,12,4,,0.00,,,186
2013-9-13,85,77,69,68,64,57,78,62,45,29.92,29.89,29.86,6,6,6,14,5,,0.00,2,,193
2013-9-14,75,70,64,66,54,46,88,59,33,30.01,29.95,29.83,6,6,4,17,9,26,0.00,4,Rain-Thunderstorm,273
2013-9-15,78,69,60,61,54,46,69,53,31,29.98,29.92,29.86,6,6,6,16,7,,0.00,2,,237
2013-9-16,80,72,63,59,51,37,68,46,17,29.89,29.79,29.68,6,6,6,10,6,,0.00,5,,225
2013-9-17,76,72,69,61,57,48,73,57,38,29.71,29.65,29.62,6,6,6,15,7,,0.00,5,Rain,208
2013-9-18,75,72,69,63,60,59,73,65,47,29.68,29.64,29.59,6,6,6,16,8,,0.00,5,,205
2013-9-19,80,72,63,63,57,39,88,61,23,29.77,29.72,29.68,6,6,6,14,5,,0.00,2,,129
2013-9-20,70,68,66,64,52,45,78,55,32,30.01,29.90,29.74,6,6,5,22,10,,0.00,5,Rain,14
2013-9-21,74,66,57,48,46,41,63,47,30,30.08,30.04,30.01,6,6,6,12,6,,0.00,3,,360
2013-9-22,70,63,56,55,49,43,77,58,46,30.10,30.08,30.04,12,6,4,22,9,18,0.02,4,Rain,353
2013-9-23,72,64,56,54,51,46,77,59,37,30.08,29.99,29.89,12,6,6,10,7,,0.00,4,Rain,272
2013-9-24,73,66,59,57,50,45,64,53,35,29.92,29.88,29.83,12,6,6,14,8,,0.00,6,,247
2013-9-25,77,69,61,59,52,46,64,51,31,30.04,29.98,29.92,6,6,6,14,7,,0.00,1,,244
2013-9-26,79,72,66,61,56,46,78,58,32,30.03,29.96,29.86,12,8,6,10,6,,0.00,,,203
2013-9-27,81,72,64,66,61,54,88,69,42,30.01,29.91,29.86,6,6,4,16,9,,0.16,3,Rain-Thunderstorm,272
2013-9-28,75,69,63,61,56,48,88,63,38,30.01,29.97,29.92,12,6,5,9,7,,0.00,3,Rain,86
2013-9-29,80,72,63,59,53,43,78,53,21,29.99,29.94,29.89,6,6,6,12,7,,0.00,3,,65
2013-9-30,85,75,65,60,56,46,78,58,20,29.89,29.80,29.68,6,6,6,12,7,,0.00,6,,48